Aspinwall, Iowa
Current Conditions -  °F | °C
As of 8:15 AM on Saturday 20 Dec 2014 (Local Time) from KDNS Reporting Station
Haze Haze  
Wind Chill: 22°   Ceiling: 300
Heat Index: 30°   Visibility: 2.5mi
Dew Point: 30°   Wind: 9mph
Humidity: 100%   Direction: 150°SSE
Pressure: 30.1"   Gusts: NA
Location:  41.91°N, 95.14°W
Report Text: KDNS 201415Z AUTO 15008KT 2 1/2SM BR OVC003 M01/M01 A3010 RMK AO2
Loading
Personal Weather Stations






























Interactive Weather Map New forecast layout! Learn more

10-Day Weather Forecast

Advertisements
Track Severe Weather on mobile